createdAt,value
2023-04-28T00:02:04.975Z,59.69
2023-04-28T00:04:50.667Z,60.21
2023-04-28T00:07:36.260Z,60.21
2023-04-28T00:10:21.656Z,60.45
2023-04-28T00:13:07.159Z,61.20
2023-04-28T00:15:53.167Z,61.30
2023-04-28T00:18:38.885Z,61.96
2023-04-28T00:21:24.274Z,61.59
2023-04-28T00:24:09.661Z,62.38
2023-04-28T00:26:55.046Z,62.87
2023-04-28T00:29:40.475Z,62.63
2023-04-28T00:32:25.979Z,63.01
2023-04-28T00:35:11.169Z,63.52
2023-04-28T00:37:56.587Z,64.00
2023-04-28T00:40:42.172Z,63.85
2023-04-28T00:43:27.775Z,63.79
2023-04-28T00:46:26.886Z,64.76
2023-04-28T00:49:12.520Z,65.58
2023-04-28T00:52:03.618Z,66.23
2023-04-28T00:54:50.025Z,66.88
2023-04-28T00:57:36.716Z,67.27
2023-04-28T01:00:22.541Z,67.22
2023-04-28T01:03:08.629Z,67.56
2023-04-28T01:05:53.887Z,67.17
2023-04-28T01:08:39.860Z,66.76
2023-04-28T01:11:32.189Z,66.77
2023-04-28T01:14:40.834Z,66.67
2023-04-28T01:17:26.805Z,66.50
2023-04-28T01:20:12.471Z,66.30
2023-04-28T01:22:58.142Z,66.25
2023-04-28T01:25:44.473Z,66.14
2023-04-28T01:28:29.979Z,66.14
2023-04-28T01:31:15.464Z,66.34
2023-04-28T01:34:00.766Z,66.13
2023-04-28T01:36:46.192Z,66.49
2023-04-28T01:39:31.542Z,66.70
2023-04-28T01:42:17.042Z,66.81
2023-04-28T01:45:03.548Z,67.16
2023-04-28T01:47:48.980Z,67.18
2023-04-28T01:50:34.398Z,67.13
2023-04-28T01:53:22.807Z,67.34
2023-04-28T01:56:08.242Z,67.22
2023-04-28T01:58:54.051Z,67.25
2023-04-28T02:01:39.620Z,67.21
2023-04-28T02:04:25.545Z,67.22
2023-04-28T02:07:10.857Z,66.93
2023-04-28T02:09:56.239Z,66.86
2023-04-28T02:12:42.725Z,66.63
2023-04-28T02:15:27.976Z,66.19
2023-04-28T02:18:13.379Z,66.51
2023-04-28T02:20:58.681Z,66.70
2023-04-28T02:23:44.099Z,66.99
2023-04-28T02:26:29.590Z,67.08
2023-04-28T02:29:15.037Z,67.12
2023-04-28T02:32:00.556Z,67.62
2023-04-28T02:34:46.173Z,67.87
2023-04-28T02:37:31.686Z,68.30
2023-04-28T02:40:17.208Z,68.74
2023-04-28T02:43:02.548Z,68.72
2023-04-28T02:45:48.416Z,69.15
2023-04-28T02:48:35.876Z,69.14
2023-04-28T02:51:21.162Z,68.85
2023-04-28T02:54:06.656Z,68.68
2023-04-28T02:56:51.991Z,68.51
2023-04-28T02:59:37.312Z,68.44
2023-04-28T03:02:23.201Z,68.26
2023-04-28T03:05:09.538Z,68.61
2023-04-28T03:07:55.417Z,68.52
2023-04-28T03:10:40.844Z,68.32
2023-04-28T03:13:26.857Z,68.03
2023-04-28T03:16:12.277Z,67.92
2023-04-28T03:18:57.498Z,67.79
2023-04-28T03:21:44.480Z,67.51
2023-04-28T03:24:31.882Z,67.23
2023-04-28T03:27:18.194Z,67.21
2023-04-28T03:30:04.100Z,66.88
2023-04-28T03:32:49.555Z,66.73
2023-04-28T03:35:34.774Z,66.18
2023-04-28T03:38:20.590Z,65.93
2023-04-28T03:41:06.892Z,66.00
2023-04-28T03:44:10.977Z,66.01
2023-04-28T03:47:04.331Z,65.85
2023-04-28T03:49:52.159Z,66.25
2023-04-28T03:52:37.724Z,66.39
2023-04-28T03:55:26.201Z,66.15
2023-04-28T03:58:11.950Z,66.87
2023-04-28T04:00:57.875Z,67.07
2023-04-28T04:03:43.328Z,67.08
2023-04-28T04:06:30.852Z,66.99
2023-04-28T04:09:16.852Z,67.04
2023-04-28T04:12:02.379Z,67.19
2023-04-28T04:14:47.723Z,67.07
2023-04-28T04:17:34.068Z,66.99
2023-04-28T04:20:19.329Z,67.15
2023-04-28T04:23:04.805Z,67.46
2023-04-28T04:25:50.178Z,67.42
2023-04-28T04:28:36.904Z,67.90
2023-04-28T04:31:24.715Z,67.67
2023-04-28T04:34:11.074Z,67.56
2023-04-28T04:36:56.565Z,67.17
2023-04-28T04:39:42.316Z,67.23
2023-04-28T04:42:28.302Z,66.79
2023-04-28T04:45:40.201Z,66.49
2023-04-28T04:48:25.747Z,66.58
2023-04-28T04:51:11.497Z,65.97
2023-04-28T04:53:57.279Z,66.05
2023-04-28T04:56:42.867Z,65.54
2023-04-28T04:59:30.222Z,65.22
2023-04-28T05:02:26.000Z,64.95
2023-04-28T05:05:20.574Z,64.68
2023-04-28T05:08:23.356Z,63.64
2023-04-28T05:11:08.870Z,62.28
2023-04-28T05:13:55.037Z,62.58
2023-04-28T05:16:43.988Z,61.67
2023-04-28T05:19:34.310Z,60.81
2023-04-28T05:22:22.029Z,60.45
2023-04-28T05:25:07.857Z,59.49
2023-04-28T05:27:53.387Z,59.41
2023-04-28T05:30:38.827Z,58.93
2023-04-28T05:33:24.183Z,58.22
2023-04-28T05:36:10.048Z,57.08
2023-04-28T05:38:55.853Z,56.75
2023-04-28T05:41:41.340Z,53.24
2023-04-28T05:44:27.423Z,51.43
2023-04-28T05:47:13.389Z,50.70
2023-04-28T05:49:59.308Z,50.58
2023-04-28T05:52:45.728Z,50.54
2023-04-28T05:55:32.120Z,51.04
2023-04-28T05:58:17.463Z,50.65
2023-04-28T06:01:03.414Z,49.86
2023-04-28T06:03:48.938Z,49.99
2023-04-28T06:06:34.653Z,49.82
2023-04-28T06:09:21.097Z,48.80
2023-04-28T06:12:06.957Z,48.96
2023-04-28T06:14:55.398Z,48.69
2023-04-28T06:17:41.464Z,47.39
2023-04-28T06:20:27.612Z,47.99
2023-04-28T06:23:14.245Z,49.31
2023-04-28T06:26:03.968Z,48.60
2023-04-28T06:28:49.924Z,48.72
2023-04-28T06:31:35.912Z,46.53
2023-04-28T06:34:21.764Z,45.88
2023-04-28T06:37:07.133Z,45.82
2023-04-28T06:39:52.560Z,45.64
2023-04-28T06:42:37.891Z,45.40
2023-04-28T06:45:29.305Z,45.48
2023-04-28T06:48:15.698Z,47.35
2023-04-28T06:51:00.993Z,46.03
2023-04-28T06:53:47.369Z,45.58
2023-04-28T06:56:33.583Z,45.28
2023-04-28T06:59:19.476Z,44.18
2023-04-28T07:02:05.008Z,44.33
2023-04-28T07:04:51.748Z,44.45
2023-04-28T07:07:38.986Z,44.05
2023-04-28T07:10:24.581Z,44.67
2023-04-28T07:13:09.982Z,43.96
2023-04-28T07:15:56.384Z,44.33
2023-04-28T07:18:42.030Z,44.25
2023-04-28T07:21:28.181Z,44.02
2023-04-28T07:24:14.221Z,43.22
2023-04-28T07:26:59.730Z,44.06
2023-04-28T07:29:45.192Z,44.98
2023-04-28T07:32:30.918Z,43.15
2023-04-28T07:35:18.494Z,43.09
2023-04-28T07:38:04.246Z,42.28
2023-04-28T07:43:35.722Z,46.66
2023-04-28T07:46:21.358Z,44.44
2023-04-28T07:49:08.344Z,43.37
2023-04-28T07:51:55.197Z,42.35
2023-04-28T07:54:40.647Z,42.04
2023-04-28T07:57:26.599Z,42.58
2023-04-28T08:00:12.803Z,44.09
2023-04-28T08:02:58.574Z,44.34
2023-04-28T08:05:45.317Z,44.99
2023-04-28T08:08:31.168Z,44.53
2023-04-28T08:11:16.894Z,44.47
2023-04-28T08:14:03.399Z,44.76
2023-04-28T08:16:49.294Z,45.71
2023-04-28T08:19:34.793Z,44.82
2023-04-28T08:22:20.066Z,45.15
2023-04-28T08:25:06.041Z,44.81
2023-04-28T08:27:54.437Z,44.84
2023-04-28T08:30:41.959Z,44.90
2023-04-28T08:33:27.386Z,44.84
2023-04-28T08:36:14.833Z,44.69
2023-04-28T08:39:01.884Z,46.06
2023-04-28T08:41:47.658Z,46.68
2023-04-28T08:44:40.421Z,45.28
2023-04-28T08:47:33.655Z,46.20
2023-04-28T08:50:22.949Z,46.58
2023-04-28T08:53:09.039Z,48.87
2023-04-28T08:55:57.308Z,49.26
2023-04-28T08:58:43.535Z,45.94
2023-04-28T09:01:29.147Z,46.95
2023-04-28T09:04:17.754Z,45.55
2023-04-28T09:07:03.506Z,44.86
2023-04-28T09:09:48.787Z,45.10
2023-04-28T09:12:40.555Z,42.36
2023-04-28T09:15:27.192Z,43.80
2023-04-28T09:18:14.883Z,43.60
2023-04-28T09:21:08.773Z,44.22
2023-04-28T09:23:54.153Z,43.14
2023-04-28T09:26:51.440Z,43.00
2023-04-28T09:29:38.712Z,43.53
2023-04-28T09:32:26.046Z,42.88
2023-04-28T09:35:12.026Z,42.52
2023-04-28T09:38:00.774Z,43.37
2023-04-28T09:40:58.472Z,42.69
2023-04-28T09:43:44.416Z,42.72
2023-04-28T09:46:30.014Z,42.69
2023-04-28T09:49:15.587Z,42.47
2023-04-28T09:52:13.889Z,44.10
2023-04-28T09:55:02.291Z,43.89
2023-04-28T09:57:50.219Z,42.91
2023-04-28T10:00:37.412Z,42.89
2023-04-28T10:03:27.585Z,43.21
2023-04-28T10:06:14.878Z,42.16
2023-04-28T10:09:01.686Z,41.79
2023-04-28T10:11:48.940Z,43.27
2023-04-28T10:14:36.832Z,43.22
2023-04-28T10:17:25.518Z,44.66
2023-04-28T10:20:11.643Z,43.08
2023-04-28T10:23:29.939Z,41.80
2023-04-28T10:26:21.984Z,40.42
2023-04-28T10:29:08.345Z,42.82
2023-04-28T10:32:17.239Z,42.49
2023-04-28T10:35:21.369Z,41.46
2023-04-28T10:38:10.103Z,41.26
2023-04-28T10:40:56.051Z,41.23
2023-04-28T10:43:42.588Z,40.78
2023-04-28T10:46:48.333Z,40.60
2023-04-28T10:49:56.275Z,39.69
2023-04-28T10:52:44.706Z,41.01
2023-04-28T10:55:36.741Z,41.67
2023-04-28T10:58:25.534Z,40.46
2023-04-28T11:01:24.749Z,41.11
2023-04-28T11:04:18.175Z,40.54
2023-04-28T11:07:13.879Z,40.80
2023-04-28T11:09:59.640Z,39.54
2023-04-28T11:13:22.524Z,39.94
2023-04-28T11:16:08.329Z,39.15
2023-04-28T11:18:59.761Z,40.19
2023-04-28T11:21:45.195Z,41.92
2023-04-28T11:24:31.536Z,41.65
2023-04-28T11:27:24.577Z,42.81
2023-04-28T11:30:22.256Z,41.71
2023-04-28T11:33:09.613Z,41.23
2023-04-28T11:35:55.051Z,40.87
2023-04-28T11:38:47.113Z,41.72
2023-04-28T11:41:34.421Z,41.97
2023-04-28T11:44:22.174Z,41.52
2023-04-28T11:47:07.911Z,42.78
2023-04-28T11:49:53.402Z,41.31
2023-04-28T11:52:53.867Z,43.14
2023-04-28T11:55:40.525Z,41.76
2023-04-28T11:58:27.752Z,41.33
2023-04-28T12:01:15.464Z,42.30
2023-04-28T12:04:01.452Z,43.28
2023-04-28T12:06:47.402Z,42.87
2023-04-28T12:09:34.473Z,40.73
2023-04-28T12:12:45.137Z,40.44
2023-04-28T12:15:42.395Z,40.31
2023-04-28T12:18:28.073Z,39.69
2023-04-28T12:21:21.466Z,41.54
2023-04-28T12:24:21.337Z,40.45
2023-04-28T12:27:24.984Z,39.65
2023-04-28T12:30:20.775Z,39.88
2023-04-28T12:33:07.469Z,39.99
2023-04-28T12:35:55.182Z,40.11
2023-04-28T12:38:48.876Z,39.97
2023-04-28T12:41:34.807Z,40.66
2023-04-28T12:44:21.421Z,41.24
2023-04-28T12:47:10.910Z,40.93
2023-04-28T12:49:56.451Z,40.38
2023-04-28T12:52:43.325Z,40.12
2023-04-28T12:55:30.367Z,39.97
2023-04-28T12:58:19.515Z,39.54
2023-04-28T13:01:05.489Z,40.32
2023-04-28T13:03:53.240Z,40.53
2023-04-28T13:06:40.522Z,38.79
2023-04-28T13:09:27.312Z,37.98
2023-04-28T13:12:13.735Z,38.62
2023-04-28T13:15:01.077Z,37.84
2023-04-28T13:17:48.655Z,37.39
2023-04-28T13:20:34.523Z,38.40
2023-04-28T13:23:20.670Z,38.54
2023-04-28T13:26:06.754Z,38.79
2023-04-28T13:28:52.653Z,39.48
2023-04-28T13:31:38.227Z,40.82
2023-04-28T13:34:24.128Z,37.34
2023-04-28T13:37:10.570Z,38.00
2023-04-28T13:39:56.252Z,38.23
2023-04-28T13:42:42.092Z,36.20
2023-04-28T13:45:28.409Z,38.04
2023-04-28T13:48:13.883Z,38.16
2023-04-28T13:50:59.310Z,39.76
2023-04-28T13:53:44.874Z,38.58
2023-04-28T13:56:31.931Z,40.39
2023-04-28T13:59:17.953Z,39.57
2023-04-28T14:02:04.121Z,37.55
2023-04-28T14:04:51.110Z,39.01
2023-04-28T14:07:36.983Z,39.56
2023-04-28T14:10:23.024Z,38.16
2023-04-28T14:13:10.372Z,38.82
2023-04-28T14:15:59.525Z,39.27
2023-04-28T14:18:45.602Z,39.04
2023-04-28T14:21:31.216Z,38.43
2023-04-28T14:24:17.055Z,38.59
2023-04-28T14:27:03.381Z,38.89
2023-04-28T14:29:49.320Z,38.77
2023-04-28T14:32:35.211Z,38.00
2023-04-28T14:35:21.522Z,38.27
2023-04-28T14:38:06.880Z,38.49
2023-04-28T14:40:52.114Z,39.41
2023-04-28T14:43:38.159Z,39.09
2023-04-28T14:46:23.591Z,38.46
2023-04-28T14:49:09.424Z,38.73
2023-04-28T14:51:55.000Z,38.13
2023-04-28T14:54:40.514Z,38.54
2023-04-28T14:57:27.071Z,38.24
2023-04-28T15:00:13.111Z,38.34
2023-04-28T15:02:58.846Z,38.83
2023-04-28T15:05:44.776Z,39.02
2023-04-28T15:08:30.192Z,38.88
2023-04-28T15:11:15.930Z,39.36
2023-04-28T15:14:01.629Z,38.81
2023-04-28T15:16:48.052Z,38.36
2023-04-28T15:19:33.844Z,38.09
2023-04-28T15:22:19.269Z,39.14
2023-04-28T15:25:05.044Z,38.30
2023-04-28T15:27:50.516Z,37.74
2023-04-28T15:30:36.694Z,38.26
2023-04-28T15:33:24.242Z,39.35
2023-04-28T15:36:10.320Z,39.65
2023-04-28T15:38:56.159Z,37.62
2023-04-28T15:41:43.217Z,38.24
2023-04-28T15:44:30.606Z,37.90
2023-04-28T15:47:16.619Z,37.40
2023-04-28T15:50:02.320Z,38.40
2023-04-28T15:52:50.373Z,38.59
2023-04-28T15:55:38.082Z,38.75
2023-04-28T15:58:24.351Z,39.49
2023-04-28T16:01:10.019Z,39.11
2023-04-28T16:03:55.767Z,39.27
2023-04-28T16:06:41.794Z,38.95
2023-04-28T16:09:27.270Z,38.47
2023-04-28T16:12:13.033Z,37.77
2023-04-28T16:14:59.511Z,38.72
2023-04-28T16:17:45.288Z,39.00
2023-04-28T16:20:30.699Z,38.77
2023-04-28T16:23:16.148Z,39.15
2023-04-28T16:26:01.697Z,38.66
2023-04-28T16:28:47.625Z,39.11
2023-04-28T16:31:33.392Z,38.57
2023-04-28T16:34:19.550Z,38.77
2023-04-28T16:37:06.980Z,38.72
2023-04-28T16:39:52.895Z,39.37
2023-04-28T16:42:39.157Z,39.54
2023-04-28T16:45:28.082Z,39.54
2023-04-28T16:48:27.369Z,40.17
2023-04-28T16:51:13.880Z,40.02
2023-04-28T16:54:00.002Z,40.06
2023-04-28T16:56:45.637Z,40.46
2023-04-28T16:59:31.522Z,40.32
2023-04-28T17:02:17.102Z,40.61
2023-04-28T17:05:02.441Z,40.93
2023-04-28T17:07:47.801Z,40.51
2023-04-28T17:10:33.244Z,41.88
2023-04-28T17:13:18.558Z,41.88
2023-04-28T17:16:11.729Z,44.59
2023-04-28T17:18:59.734Z,45.22
2023-04-28T17:21:46.445Z,45.28
2023-04-28T17:24:32.004Z,45.72
2023-04-28T17:27:17.391Z,46.12
2023-04-28T17:30:03.704Z,46.46
2023-04-28T17:32:49.603Z,47.56
2023-04-28T17:35:37.227Z,47.44
2023-04-28T17:38:22.853Z,47.48
2023-04-28T17:41:08.213Z,47.53
2023-04-28T17:43:54.294Z,47.39
2023-04-28T17:46:40.143Z,47.83
2023-04-28T17:49:25.538Z,48.16
2023-04-28T17:52:11.240Z,48.42
2023-04-28T17:54:56.782Z,48.12
2023-04-28T17:57:42.368Z,48.45
2023-04-28T18:00:27.774Z,48.86
2023-04-28T18:03:13.492Z,49.38
2023-04-28T18:05:59.475Z,48.92
2023-04-28T18:08:44.784Z,48.89
2023-04-28T18:11:30.367Z,50.22
2023-04-28T18:14:18.245Z,50.46
2023-04-28T18:17:04.153Z,51.62
2023-04-28T18:19:52.217Z,51.71
2023-04-28T18:22:39.117Z,51.06
2023-04-28T18:25:24.700Z,51.06
2023-04-28T18:28:11.019Z,50.58
2023-04-28T18:30:56.775Z,50.78
2023-04-28T18:33:42.221Z,50.82
2023-04-28T18:36:28.209Z,50.77
2023-04-28T18:39:13.685Z,51.24
2023-04-28T18:41:59.559Z,52.19
2023-04-28T18:44:45.311Z,51.82
2023-04-28T18:47:31.485Z,51.82
2023-04-28T18:50:17.513Z,51.61
2023-04-28T18:53:04.598Z,51.28
2023-04-28T18:55:53.938Z,52.18
2023-04-28T18:58:41.360Z,52.18
2023-04-28T19:01:27.806Z,54.45
2023-04-28T19:04:14.582Z,56.66
2023-04-28T19:07:00.431Z,57.40
2023-04-28T19:09:46.015Z,57.34
2023-04-28T19:12:31.910Z,57.05
2023-04-28T19:15:17.509Z,58.07
2023-04-28T19:18:04.855Z,59.01
2023-04-28T19:20:52.182Z,59.53
2023-04-28T19:23:41.169Z,60.22
2023-04-28T19:26:27.106Z,60.44
2023-04-28T19:29:14.998Z,60.30
2023-04-28T19:32:00.269Z,59.60
2023-04-28T19:34:45.695Z,59.74
2023-04-28T19:37:35.006Z,60.01
2023-04-28T19:40:20.937Z,60.53
2023-04-28T19:43:06.789Z,60.91
2023-04-28T19:45:52.205Z,61.32
2023-04-28T19:48:37.646Z,61.40
2023-04-28T19:51:22.899Z,60.41
2023-04-28T19:54:08.373Z,60.70
2023-04-28T19:56:53.890Z,60.91
2023-04-28T19:59:40.325Z,60.92
2023-04-28T20:02:26.446Z,60.52
2023-04-28T20:05:13.157Z,60.12
2023-04-28T20:07:59.124Z,59.79
2023-04-28T20:10:44.625Z,59.52
2023-04-28T20:13:30.296Z,58.95
2023-04-28T20:16:16.615Z,59.15
2023-04-28T20:19:02.598Z,58.77
2023-04-28T20:21:48.002Z,58.98
2023-04-28T20:24:34.862Z,59.39
2023-04-28T20:27:22.756Z,59.01
2023-04-28T20:30:08.487Z,59.73
2023-04-28T20:32:54.272Z,59.98
2023-04-28T20:35:39.682Z,60.10
2023-04-28T20:38:25.090Z,60.04
2023-04-28T20:41:10.922Z,60.33
2023-04-28T20:43:56.583Z,61.15
2023-04-28T20:46:42.173Z,61.76
2023-04-28T20:49:28.493Z,62.12
2023-04-28T20:52:13.858Z,62.86
2023-04-28T20:55:00.474Z,62.91
2023-04-28T20:57:45.794Z,62.60
2023-04-28T21:00:33.650Z,62.52
2023-04-28T21:03:23.432Z,62.31
2023-04-28T21:06:09.183Z,61.98
2023-04-28T21:08:55.033Z,62.04
2023-04-28T21:11:41.367Z,62.03
2023-04-28T21:14:26.895Z,62.79
2023-04-28T21:17:12.318Z,63.12
2023-04-28T21:19:57.759Z,63.69
2023-04-28T21:22:43.181Z,63.48
2023-04-28T21:25:28.684Z,63.40
2023-04-28T21:28:14.544Z,63.04
2023-04-28T21:31:02.277Z,62.77
2023-04-28T21:33:48.634Z,63.27
2023-04-28T21:36:34.696Z,63.21
2023-04-28T21:39:22.726Z,62.95
2023-04-28T21:42:09.220Z,63.13
2023-04-28T21:44:55.667Z,63.47
2023-04-28T21:47:43.409Z,63.87
2023-04-28T21:50:29.873Z,63.99
2023-04-28T21:53:15.786Z,64.02
2023-04-28T21:56:02.052Z,64.52
2023-04-28T21:58:50.098Z,64.76
2023-04-28T22:01:39.378Z,64.65
2023-04-28T22:04:25.896Z,64.14
2023-04-28T22:07:12.464Z,64.17
2023-04-28T22:09:58.807Z,63.70
2023-04-28T22:12:44.710Z,63.55
2023-04-28T22:15:31.904Z,63.56
2023-04-28T22:18:20.893Z,63.81
2023-04-28T22:21:08.209Z,64.22
2023-04-28T22:23:54.611Z,64.20
2023-04-28T22:26:47.826Z,64.06
2023-04-28T22:29:33.371Z,64.21
2023-04-28T22:32:18.826Z,64.01
2023-04-28T22:35:04.728Z,63.72
2023-04-28T22:37:50.219Z,63.13
2023-04-28T22:40:36.553Z,63.04
2023-04-28T22:43:22.238Z,63.35
2023-04-28T22:46:08.102Z,63.69
2023-04-28T22:48:53.589Z,63.84
2023-04-28T22:51:39.089Z,64.01
2023-04-28T22:54:24.663Z,64.09
2023-04-28T22:57:11.553Z,64.21
2023-04-28T22:59:56.982Z,63.74
2023-04-28T23:02:42.841Z,63.74
2023-04-28T23:05:28.632Z,63.70
2023-04-28T23:08:13.864Z,63.56
2023-04-28T23:10:59.527Z,63.62
2023-04-28T23:13:44.958Z,63.64
2023-04-28T23:16:30.467Z,63.62
2023-04-28T23:19:18.057Z,63.75
2023-04-28T23:22:08.494Z,63.99
2023-04-28T23:24:54.020Z,64.48
2023-04-28T23:27:40.425Z,64.50
2023-04-28T23:30:26.968Z,64.43
2023-04-28T23:33:13.185Z,64.38
2023-04-28T23:35:59.029Z,64.26
2023-04-28T23:38:44.400Z,64.14
2023-04-28T23:41:30.117Z,63.46
2023-04-28T23:44:15.707Z,63.56
2023-04-28T23:47:01.020Z,63.83
2023-04-28T23:49:47.065Z,64.00
2023-04-28T23:52:32.781Z,64.17
2023-04-28T23:55:18.886Z,64.73
2023-04-28T23:58:04.833Z,64.79
